Time,TemperatureF,DewpointF,PressureIn,WindDirection,WindDirectionDegrees,WindSpeedMPH,WindSpeedGustMPH,Humidity,HourlyPrecipIn,Conditions,Clouds,dailyrainin,SoftwareType,DateUTC
2013-07-09 00:15:00,65.4,44.0,29.84,North,355,5.0,6.0,47,0.00,,,0.00,weatherlink.com 1.10,2013-07-09 06:15:00,
2013-07-09 00:30:00,64.9,44.0,29.84,NNE,17,9.0,9.0,47,0.00,,,0.00,weatherlink.com 1.10,2013-07-09 06:30:00,
2013-07-09 00:45:00,64.4,45.0,29.84,NNW,327,4.0,10.0,49,0.00,,,0.00,weatherlink.com 1.10,2013-07-09 06:45:00,
2013-07-09 01:00:00,63.8,45.0,29.84,North,355,5.0,9.0,51,0.00,,,0.00,weatherlink.com 1.10,2013-07-09 07:00:00,
2013-07-09 02:01:00,62.9,44.0,29.86,North,5,8.0,10.0,51,0.00,,,0.00,weatherlink.com 1.10,2013-07-09 08:01:00,
2013-07-09 02:15:00,62.7,44.0,29.86,NNE,14,7.0,10.0,51,0.00,,,0.00,weatherlink.com 1.10,2013-07-09 08:15:00,
2013-07-09 02:30:00,60.7,45.0,29.86,WSW,245,0.0,6.0,57,0.00,,,0.00,weatherlink.com 1.10,2013-07-09 08:30:00,
2013-07-09 02:45:00,60.4,45.0,29.86,NW,312,2.0,9.0,57,0.00,,,0.00,weatherlink.com 1.10,2013-07-09 08:45:00,
2013-07-09 03:00:00,58.4,46.0,29.87,WSW,239,0.0,3.0,63,0.00,,,0.00,weatherlink.com 1.10,2013-07-09 09:00:00,
2013-07-09 03:15:00,56.0,46.0,29.87,SW,221,0.0,2.0,68,0.00,,,0.00,weatherlink.com 1.10,2013-07-09 09:15:00,
2013-07-09 03:31:00,57.0,45.0,29.87,NNW,344,1.0,3.0,65,0.00,,,0.00,weatherlink.com 1.10,2013-07-09 09:31:00,
2013-07-09 03:45:00,55.9,45.0,29.88,NNW,343,2.0,4.0,68,0.00,,,0.00,weatherlink.com 1.10,2013-07-09 09:45:00,
2013-07-09 04:00:00,54.6,45.0,29.88,NNW,343,1.0,2.0,71,0.00,,,0.00,weatherlink.com 1.10,2013-07-09 10:00:00,
2013-07-09 04:15:00,55.8,45.0,29.89,NNW,344,2.0,4.0,67,0.00,,,0.00,weatherlink.com 1.10,2013-07-09 10:15:00,
2013-07-09 04:30:00,55.8,45.0,29.89,NE,53,4.0,6.0,67,0.00,,,0.00,weatherlink.com 1.10,2013-07-09 10:30:00,
2013-07-09 04:45:00,55.9,45.0,29.89,North,11,0.0,5.0,67,0.00,,,0.00,weatherlink.com 1.10,2013-07-09 10:45:00,
2013-07-09 05:01:00,55.0,46.0,29.89,NE,42,0.0,6.0,71,0.00,,,0.00,weatherlink.com 1.10,2013-07-09 11:01:00,
2013-07-09 05:16:00,51.1,46.0,29.90,ENE,68,2.0,2.0,82,0.00,,,0.00,weatherlink.com 1.10,2013-07-09 11:16:00,
2013-07-09 05:31:00,49.9,46.0,29.90,ENE,68,0.0,0.0,85,0.00,,,0.00,weatherlink.com 1.10,2013-07-09 11:31:00,
2013-07-09 05:46:00,49.4,46.0,29.91,ENE,68,0.0,0.0,87,0.00,,,0.00,weatherlink.com 1.10,2013-07-09 11:46:00,
2013-07-09 06:01:00,49.0,45.0,29.92,ENE,69,0.0,2.0,87,0.00,,,0.00,weatherlink.com 1.10,2013-07-09 12:01:00,
2013-07-09 06:16:00,48.8,45.0,29.92,ENE,69,1.0,1.0,88,0.00,,,0.00,weatherlink.com 1.10,2013-07-09 12:16:00,
2013-07-09 06:31:00,53.3,46.0,29.93,NNE,20,3.0,6.0,76,0.00,,,0.00,weatherlink.com 1.10,2013-07-09 12:31:00,
2013-07-09 06:45:00,50.4,45.0,29.93,NE,49,0.0,1.0,81,0.00,,,0.00,weatherlink.com 1.10,2013-07-09 12:45:00,
2013-07-09 07:15:00,50.9,46.0,29.94,ENE,75,0.0,1.0,84,0.00,,,0.00,weatherlink.com 1.10,2013-07-09 13:15:00,
2013-07-09 07:30:00,52.7,47.0,29.94,NNW,335,0.0,0.0,82,0.00,,,0.00,weatherlink.com 1.10,2013-07-09 13:30:00,
2013-07-09 07:45:00,53.5,47.0,29.94,SSE,163,0.0,3.0,79,0.00,,,0.00,weatherlink.com 1.10,2013-07-09 13:45:00,
2013-07-09 08:00:00,55.0,48.0,29.95,SSE,163,0.0,0.0,78,0.00,,,0.00,weatherlink.com 1.10,2013-07-09 14:00:00,
2013-07-09 08:15:00,57.1,48.0,29.95,WNW,301,2.0,3.0,71,0.00,,,0.00,weatherlink.com 1.10,2013-07-09 14:15:00,
2013-07-09 08:30:00,58.3,48.0,29.95,NNW,342,1.0,4.0,68,0.00,,,0.00,weatherlink.com 1.10,2013-07-09 14:30:00,
2013-07-09 08:46:00,59.3,48.0,29.95,NNW,342,4.0,4.0,67,0.00,,,0.00,weatherlink.com 1.10,2013-07-09 14:46:00,
2013-07-09 09:01:00,60.5,48.0,29.95,NNE,13,0.0,4.0,64,0.00,,,0.00,weatherlink.com 1.10,2013-07-09 15:01:00,
2013-07-09 09:16:00,62.0,48.0,29.95,West,270,0.0,3.0,60,0.00,,,0.00,weatherlink.com 1.10,2013-07-09 15:16:00,
2013-07-09 09:31:00,63.6,48.0,29.95,West,274,0.0,3.0,58,0.00,,,0.00,weatherlink.com 1.10,2013-07-09 15:31:00,
2013-07-09 09:46:00,65.3,48.0,29.95,West,274,0.0,2.0,54,0.00,,,0.00,weatherlink.com 1.10,2013-07-09 15:46:00,
2013-07-09 10:01:00,66.8,49.0,29.95,West,273,1.0,3.0,54,0.00,,,0.00,weatherlink.com 1.10,2013-07-09 16:01:00,
2013-07-09 10:16:00,67.9,47.0,29.94,WNW,292,2.0,4.0,47,0.00,,,0.00,weatherlink.com 1.10,2013-07-09 16:16:00,
2013-07-09 10:31:00,69.0,48.0,29.94,West,276,0.0,4.0,47,0.00,,,0.00,weatherlink.com 1.10,2013-07-09 16:31:00,
2013-07-09 10:46:00,70.0,48.0,29.94,West,279,2.0,4.0,46,0.00,,,0.00,weatherlink.com 1.10,2013-07-09 16:46:00,
2013-07-09 11:01:00,71.0,49.0,29.94,WSW,252,2.0,6.0,45,0.00,,,0.00,weatherlink.com 1.10,2013-07-09 17:01:00,
2013-07-09 11:16:00,72.4,49.0,29.93,NW,309,1.0,5.0,44,0.00,,,0.00,weatherlink.com 1.10,2013-07-09 17:16:00,
2013-07-09 11:31:00,73.3,49.0,29.93,NW,315,4.0,5.0,42,0.00,,,0.00,weatherlink.com 1.10,2013-07-09 17:31:00,
2013-07-09 11:46:00,74.1,48.0,29.92,WNW,291,1.0,5.0,39,0.00,,,0.00,weatherlink.com 1.10,2013-07-09 17:46:00,
2013-07-09 12:50:00,77.4,44.0,29.90,WSW,244,4.0,6.0,31,0.00,,,0.00,weatherlink.com 1.10,2013-07-09 18:50:00,
2013-07-09 13:04:00,78.0,44.0,29.89,WNW,296,5.0,6.0,30,0.00,,,0.00,weatherlink.com 1.10,2013-07-09 19:04:00,
2013-07-09 13:17:00,78.9,43.0,29.89,WNW,289,0.0,7.0,28,0.00,,,0.00,weatherlink.com 1.10,2013-07-09 19:17:00,
2013-07-09 13:32:00,79.7,45.0,29.88,SW,230,5.0,7.0,29,0.00,,,0.00,weatherlink.com 1.10,2013-07-09 19:32:00,
2013-07-09 13:47:00,81.0,46.0,29.88,NW,319,4.0,6.0,29,0.00,,,0.00,weatherlink.com 1.10,2013-07-09 19:47:00,
2013-07-09 14:02:00,80.6,46.0,29.88,West,279,5.0,10.0,29,0.00,,,0.00,weatherlink.com 1.10,2013-07-09 20:02:00,
2013-07-09 14:17:00,81.1,45.0,29.87,NW,313,4.0,7.0,28,0.00,,,0.00,weatherlink.com 1.10,2013-07-09 20:17:00,
2013-07-09 14:32:00,81.6,44.0,29.87,West,259,2.0,9.0,27,0.00,,,0.00,weatherlink.com 1.10,2013-07-09 20:32:00,
2013-07-09 14:47:00,82.4,47.0,29.86,NW,323,5.0,7.0,29,0.00,,,0.00,weatherlink.com 1.10,2013-07-09 20:47:00,
2013-07-09 15:03:00,82.9,47.0,29.85,NNW,331,6.0,9.0,28,0.00,,,0.00,weatherlink.com 1.10,2013-07-09 21:03:00,
2013-07-09 15:18:00,82.6,46.0,29.85,NNE,13,6.0,10.0,28,0.00,,,0.00,weatherlink.com 1.10,2013-07-09 21:18:00,
2013-07-09 15:33:00,82.9,48.0,29.84,West,268,5.0,11.0,29,0.00,,,0.00,weatherlink.com 1.10,2013-07-09 21:33:00,
2013-07-09 15:48:00,83.2,47.0,29.84,WNW,298,5.0,11.0,28,0.00,,,0.00,weatherlink.com 1.10,2013-07-09 21:48:00,
2013-07-09 16:03:00,83.7,47.0,29.83,NNW,336,6.0,11.0,28,0.00,,,0.00,weatherlink.com 1.10,2013-07-09 22:03:00,
2013-07-09 16:18:00,84.1,48.0,29.82,WNW,292,6.0,11.0,28,0.00,,,0.00,weatherlink.com 1.10,2013-07-09 22:18:00,
2013-07-09 16:33:00,84.1,46.0,29.82,NW,311,9.0,13.0,26,0.00,,,0.00,weatherlink.com 1.10,2013-07-09 22:33:00,
2013-07-09 16:48:00,84.4,45.0,29.82,NNW,328,6.0,11.0,25,0.00,,,0.00,weatherlink.com 1.10,2013-07-09 22:48:00,
2013-07-09 17:03:00,84.7,44.0,29.81,WNW,292,9.0,11.0,24,0.00,,,0.00,weatherlink.com 1.10,2013-07-09 23:03:00,
2013-07-09 17:18:00,85.6,48.0,29.81,NW,322,4.0,10.0,27,0.00,,,0.00,weatherlink.com 1.10,2013-07-09 23:18:00,
2013-07-09 17:33:00,85.2,47.0,29.80,West,266,1.0,10.0,26,0.00,,,0.00,weatherlink.com 1.10,2013-07-09 23:33:00,
2013-07-09 17:48:00,86.0,44.0,29.80,WNW,298,4.0,11.0,23,0.00,,,0.00,weatherlink.com 1.10,2013-07-09 23:48:00,
2013-07-09 18:03:00,85.6,46.0,29.79,WNW,290,4.0,9.0,25,0.00,,,0.00,weatherlink.com 1.10,2013-07-10 00:03:00,
2013-07-09 18:18:00,85.8,46.0,29.79,WNW,286,4.0,9.0,25,0.00,,,0.00,weatherlink.com 1.10,2013-07-10 00:18:00,
2013-07-09 18:33:00,85.6,43.0,29.78,WNW,301,6.0,7.0,22,0.00,,,0.00,weatherlink.com 1.10,2013-07-10 00:33:00,
2013-07-09 18:48:00,85.5,44.0,29.78,NNW,329,5.0,9.0,23,0.00,,,0.00,weatherlink.com 1.10,2013-07-10 00:48:00,
2013-07-09 19:03:00,85.1,46.0,29.78,NW,315,3.0,7.0,25,0.00,,,0.00,weatherlink.com 1.10,2013-07-10 01:03:00,
2013-07-09 19:18:00,85.0,46.0,29.77,NW,313,4.0,9.0,26,0.00,,,0.00,weatherlink.com 1.10,2013-07-10 01:18:00,
2013-07-09 19:33:00,84.4,46.0,29.77,NW,313,3.0,6.0,26,0.00,,,0.00,weatherlink.com 1.10,2013-07-10 01:33:00,
2013-07-09 19:48:00,84.2,48.0,29.77,WNW,300,1.0,6.0,28,0.00,,,0.00,weatherlink.com 1.10,2013-07-10 01:48:00,
2013-07-09 20:03:00,83.6,49.0,29.77,WNW,302,2.0,5.0,30,0.00,,,0.00,weatherlink.com 1.10,2013-07-10 02:03:00,
2013-07-09 20:18:00,82.6,48.0,29.77,NW,312,0.0,6.0,30,0.00,,,0.00,weatherlink.com 1.10,2013-07-10 02:18:00,
2013-07-09 20:33:00,81.9,48.0,29.77,NW,325,0.0,4.0,31,0.00,,,0.00,weatherlink.com 1.10,2013-07-10 02:33:00,
2013-07-09 20:49:00,80.8,49.0,29.77,NW,325,3.0,3.0,33,0.00,,,0.00,weatherlink.com 1.10,2013-07-10 02:49:00,
2013-07-09 21:03:00,80.1,47.0,29.77,NNE,26,4.0,6.0,31,0.00,,,0.00,weatherlink.com 1.10,2013-07-10 03:03:00,
2013-07-09 21:18:00,78.8,44.0,29.78,NNE,26,4.0,7.0,29,0.00,,,0.00,weatherlink.com 1.10,2013-07-10 03:18:00,
2013-07-09 21:33:00,74.8,50.0,29.78,North,355,3.0,4.0,42,0.00,,,0.00,weatherlink.com 1.10,2013-07-10 03:33:00,
2013-07-09 21:48:00,73.1,45.0,29.78,NE,48,0.0,5.0,36,0.00,,,0.00,weatherlink.com 1.10,2013-07-10 03:48:00,
2013-07-09 22:03:00,71.3,50.0,29.79,NE,48,0.0,2.0,47,0.00,,,0.00,weatherlink.com 1.10,2013-07-10 04:03:00,
2013-07-09 22:18:00,68.5,46.0,29.79,NE,49,6.0,7.0,45,0.00,,,0.00,weatherlink.com 1.10,2013-07-10 04:18:00,
2013-07-09 22:33:00,71.0,44.0,29.80,NNE,24,0.0,6.0,38,0.00,,,0.00,weatherlink.com 1.10,2013-07-10 04:33:00,
2013-07-09 22:48:00,67.4,48.0,29.80,East,93,2.0,6.0,51,0.00,,,0.00,weatherlink.com 1.10,2013-07-10 04:48:00,
2013-07-09 23:03:00,66.1,50.0,29.80,NNW,342,1.0,2.0,56,0.00,,,0.00,weatherlink.com 1.10,2013-07-10 05:03:00,
2013-07-09 23:18:00,63.0,50.0,29.80,NNW,342,1.0,2.0,63,0.00,,,0.00,weatherlink.com 1.10,2013-07-10 05:18:00,
2013-07-09 23:33:00,62.3,50.0,29.80,NE,34,1.0,5.0,64,0.00,,,0.00,weatherlink.com 1.10,2013-07-10 05:33:00,
2013-07-09 23:48:00,60.6,49.0,29.81,SE,129,0.0,3.0,66,0.00,,,0.00,weatherlink.com 1.10,2013-07-10 05:48:00,